createdAt,value
2022-08-11T00:01:28.775Z,3.28
2022-08-11T00:04:01.913Z,3.05
2022-08-11T00:06:38.302Z,2.40
2022-08-11T00:09:13.611Z,2.33
2022-08-11T00:11:47.143Z,2.58
2022-08-11T00:14:17.029Z,2.60
2022-08-11T00:16:53.824Z,3.20
2022-08-11T00:20:11.602Z,3.03
2022-08-11T00:22:23.574Z,3.25
2022-08-11T00:24:56.044Z,3.80
2022-08-11T00:27:37.549Z,3.60
2022-08-11T00:30:07.368Z,3.50
2022-08-11T00:32:38.291Z,3.15
2022-08-11T00:35:56.228Z,3.25
2022-08-11T00:37:58.579Z,3.35
2022-08-11T00:40:38.258Z,3.67
2022-08-11T00:43:29.538Z,3.75
2022-08-11T00:46:32.464Z,3.63
2022-08-11T00:49:51.077Z,3.20
2022-08-11T00:52:49.689Z,3.08
2022-08-11T00:56:05.437Z,3.50
2022-08-11T00:59:34.481Z,3.28
2022-08-11T01:02:19.099Z,3.70
2022-08-11T01:05:28.406Z,3.70
2022-08-11T01:08:34.238Z,4.07
2022-08-11T01:11:30.434Z,3.65
2022-08-11T01:14:38.850Z,3.90
2022-08-11T01:17:36.828Z,3.58
2022-08-11T01:20:48.447Z,3.42
2022-08-11T01:23:35.960Z,2.95
2022-08-11T01:26:22.075Z,3.70
2022-08-11T01:29:32.166Z,3.42
2022-08-11T01:32:09.896Z,2.92
2022-08-11T01:35:15.218Z,3.17
2022-08-11T01:38:20.923Z,3.08
2022-08-11T01:41:24.083Z,2.95
2022-08-11T01:44:38.950Z,3.67
2022-08-11T01:47:52.666Z,3.38
2022-08-11T01:50:47.541Z,3.17
2022-08-11T01:53:44.010Z,3.63
2022-08-11T01:56:39.362Z,3.25
2022-08-11T01:59:49.830Z,2.97
2022-08-11T02:02:45.938Z,3.65
2022-08-11T02:05:30.159Z,4.60
2022-08-11T02:08:41.963Z,3.60
2022-08-11T02:11:35.685Z,4.30
2022-08-11T02:14:29.183Z,3.88
2022-08-11T02:17:19.617Z,3.70
2022-08-11T02:20:29.636Z,3.70
2022-08-11T02:24:05.667Z,3.72
2022-08-11T02:26:17.323Z,3.90
2022-08-11T02:29:00.231Z,3.95
2022-08-11T02:32:25.525Z,4.03
2022-08-11T02:34:59.421Z,3.92
2022-08-11T02:37:33.969Z,3.88
2022-08-11T02:40:23.450Z,3.58
2022-08-11T02:43:19.347Z,3.95
2022-08-11T02:46:02.095Z,3.60
2022-08-11T02:49:17.103Z,3.60
2022-08-11T02:52:16.638Z,3.53
2022-08-11T02:55:06.381Z,4.00
2022-08-11T02:58:04.432Z,4.38
2022-08-11T03:01:07.559Z,3.90
2022-08-11T03:03:45.325Z,4.10
2022-08-11T03:06:49.367Z,3.75
2022-08-11T03:09:45.889Z,3.72
2022-08-11T03:12:53.580Z,4.38
2022-08-11T03:15:53.248Z,3.90
2022-08-11T03:18:32.611Z,4.10
2022-08-11T03:21:39.550Z,3.90
2022-08-11T03:24:33.766Z,3.70
2022-08-11T03:27:09.069Z,4.00
2022-08-11T03:29:48.446Z,3.65
2022-08-11T03:33:10.254Z,4.00
2022-08-11T03:35:44.667Z,3.80
2022-08-11T03:38:16.970Z,4.25
2022-08-11T03:42:02.210Z,3.95
2022-08-11T03:44:26.687Z,4.65
2022-08-11T03:47:38.443Z,4.53
2022-08-11T03:50:51.840Z,4.85
2022-08-11T03:53:59.905Z,4.55
2022-08-11T03:56:42.546Z,4.38
2022-08-11T03:59:24.833Z,4.60
2022-08-11T04:02:01.582Z,4.30
2022-08-11T04:04:51.534Z,5.20
2022-08-11T04:08:04.728Z,4.63
2022-08-11T04:10:59.279Z,12.82
2022-08-11T04:13:41.437Z,5.30
2022-08-11T04:16:25.320Z,4.97
2022-08-11T04:19:15.057Z,4.32
2022-08-11T04:21:42.996Z,4.50
2022-08-11T04:24:37.496Z,4.97
2022-08-11T04:27:20.723Z,4.80
2022-08-11T04:30:03.385Z,5.10
2022-08-11T04:32:55.902Z,4.78
2022-08-11T04:36:10.759Z,4.93
2022-08-11T04:39:12.066Z,4.00
2022-08-11T04:42:13.718Z,4.60
2022-08-11T04:45:13.175Z,4.60
2022-08-11T04:48:21.707Z,5.00
2022-08-11T04:51:39.251Z,4.80
2022-08-11T04:54:51.806Z,5.20
2022-08-11T04:57:53.825Z,5.00
2022-08-11T05:00:46.678Z,5.20
2022-08-11T05:03:51.823Z,4.50
2022-08-11T05:07:13.393Z,4.72
2022-08-11T05:09:56.902Z,4.70
2022-08-11T05:12:35.498Z,4.35
2022-08-11T05:15:24.151Z,5.10
2022-08-11T05:18:35.939Z,4.60
2022-08-11T05:21:28.177Z,4.72
2022-08-11T05:24:39.927Z,4.35
2022-08-11T05:27:30.858Z,5.82
2022-08-11T05:30:34.323Z,5.25
2022-08-11T05:33:56.513Z,12.63
2022-08-11T05:39:33.567Z,4.22
2022-08-11T05:42:30.344Z,4.82
2022-08-11T05:45:29.550Z,4.20
2022-08-11T05:48:36.168Z,3.85
2022-08-11T05:51:30.384Z,3.33
2022-08-11T05:54:28.293Z,3.40
2022-08-11T05:57:01.832Z,3.15
2022-08-11T05:59:32.342Z,3.65
2022-08-11T06:02:09.850Z,3.40
2022-08-11T06:04:39.407Z,4.13
2022-08-11T06:07:10.899Z,3.40
2022-08-11T06:09:47.604Z,3.40
2022-08-11T06:12:26.889Z,3.50
2022-08-11T06:14:59.702Z,3.20
2022-08-11T06:17:38.542Z,3.05
2022-08-11T06:20:13.417Z,3.38
2022-08-11T06:22:47.514Z,2.95
2022-08-11T06:25:18.702Z,3.20
2022-08-11T06:27:47.294Z,2.58
2022-08-11T06:30:15.646Z,2.97
2022-08-11T06:32:47.490Z,2.70
2022-08-11T06:35:40.566Z,3.30
2022-08-11T06:38:17.408Z,2.90
2022-08-11T06:41:33.296Z,2.92
2022-08-11T06:44:14.276Z,3.13
2022-08-11T06:46:49.492Z,2.60
2022-08-11T06:49:37.769Z,2.47
2022-08-11T06:52:35.154Z,3.03
2022-08-11T06:55:56.029Z,2.47
2022-08-11T06:58:24.681Z,2.65
2022-08-11T07:00:57.948Z,2.60
2022-08-11T07:03:32.855Z,2.60
2022-08-11T07:06:16.894Z,2.35
2022-08-11T07:09:20.315Z,2.67
2022-08-11T07:12:25.159Z,2.30
2022-08-11T07:15:13.754Z,2.30
2022-08-11T07:18:24.442Z,2.20
2022-08-11T07:22:01.279Z,2.10
2022-08-11T07:24:58.586Z,2.28
2022-08-11T07:27:40.546Z,2.05
2022-08-11T07:30:11.367Z,2.05
2022-08-11T07:32:50.919Z,2.15
2022-08-11T07:35:23.531Z,2.30
2022-08-11T07:38:07.230Z,2.05
2022-08-11T07:40:37.784Z,2.28
2022-08-11T07:43:08.052Z,1.88
2022-08-11T07:45:55.055Z,2.00
2022-08-11T07:48:43.963Z,2.08
2022-08-11T07:51:30.496Z,3.28
2022-08-11T07:54:07.750Z,2.50
2022-08-11T07:56:54.980Z,2.00
2022-08-11T08:00:00.490Z,2.08
2022-08-11T08:03:00.074Z,2.13
2022-08-11T08:05:47.100Z,2.30
2022-08-11T08:08:35.243Z,2.05
2022-08-11T08:11:27.378Z,2.20
2022-08-11T08:14:15.664Z,1.88
2022-08-11T08:17:03.085Z,1.70
2022-08-11T08:19:32.524Z,1.90
2022-08-11T08:22:34.638Z,1.88
2022-08-11T08:24:50.759Z,1.90
2022-08-11T08:27:19.736Z,1.58
2022-08-11T08:30:17.521Z,1.58
2022-08-11T08:32:46.103Z,1.90
2022-08-11T08:35:14.438Z,2.03
2022-08-11T08:37:46.944Z,2.30
2022-08-11T08:40:16.324Z,1.75
2022-08-11T08:42:52.632Z,1.98
2022-08-11T08:45:21.938Z,2.20
2022-08-11T08:48:06.785Z,1.90
2022-08-11T08:51:02.117Z,1.92
2022-08-11T08:53:36.698Z,2.08
2022-08-11T08:56:07.022Z,1.90
2022-08-11T08:58:37.494Z,1.90
2022-08-11T09:01:06.933Z,1.95
2022-08-11T09:04:04.848Z,1.85
2022-08-11T09:06:27.752Z,1.52
2022-08-11T09:08:57.059Z,1.77
2022-08-11T09:11:44.213Z,1.83
2022-08-11T09:14:15.141Z,1.63
2022-08-11T09:16:45.370Z,2.08
2022-08-11T09:19:18.658Z,1.40
2022-08-11T09:22:12.108Z,1.50
2022-08-11T09:24:59.147Z,1.70
2022-08-11T09:27:28.382Z,1.73
2022-08-11T09:29:57.384Z,1.70
2022-08-11T09:32:27.737Z,1.50
2022-08-11T09:34:56.341Z,1.60
2022-08-11T09:37:55.516Z,2.00
2022-08-11T09:40:32.662Z,1.83
2022-08-11T09:43:26.974Z,1.90
2022-08-11T09:45:57.466Z,1.50
2022-08-11T09:48:27.480Z,1.70
2022-08-11T09:53:36.730Z,1.80
2022-08-11T09:56:37.374Z,1.90
2022-08-11T09:59:06.926Z,1.80
2022-08-11T10:02:03.597Z,1.60
2022-08-11T10:04:43.930Z,1.85
2022-08-11T10:07:15.656Z,1.58
2022-08-11T10:09:56.341Z,2.15
2022-08-11T10:12:38.534Z,1.30
2022-08-11T10:15:29.176Z,1.35
2022-08-11T10:18:31.538Z,1.73
2022-08-11T10:21:09.427Z,1.30
2022-08-11T10:24:00.208Z,1.52
2022-08-11T10:26:53.682Z,1.75
2022-08-11T10:30:07.251Z,1.65
2022-08-11T10:32:58.509Z,1.60
2022-08-11T10:35:29.768Z,1.50
2022-08-11T10:38:07.485Z,1.20
2022-08-11T10:40:46.363Z,1.55
2022-08-11T10:43:17.042Z,1.77
2022-08-11T10:46:29.704Z,2.13
2022-08-11T10:49:00.360Z,2.20
2022-08-11T10:51:51.141Z,1.80
2022-08-11T10:54:42.073Z,1.35
2022-08-11T10:57:29.073Z,1.60
2022-08-11T10:59:58.997Z,1.73
2022-08-11T11:02:30.842Z,1.85
2022-08-11T11:05:11.433Z,1.58
2022-08-11T11:08:22.741Z,1.90
2022-08-11T11:10:51.114Z,1.67
2022-08-11T11:13:38.530Z,1.40
2022-08-11T11:16:40.969Z,1.58
2022-08-11T11:19:11.936Z,1.85
2022-08-11T11:24:42.365Z,1.60
2022-08-11T11:27:25.555Z,1.23
2022-08-11T11:30:16.190Z,1.50
2022-08-11T11:35:41.000Z,1.30
2022-08-11T11:38:13.980Z,1.50
2022-08-11T11:41:05.897Z,1.40
2022-08-11T11:43:36.688Z,1.25
2022-08-11T11:48:36.977Z,1.40
2022-08-11T11:51:05.722Z,1.23
2022-08-11T11:53:35.056Z,1.38
2022-08-11T11:56:04.741Z,1.30
2022-08-11T11:58:51.265Z,1.48
2022-08-11T12:01:25.745Z,1.25
2022-08-11T12:03:57.821Z,1.70
2022-08-11T12:06:27.069Z,1.20
2022-08-11T12:09:01.928Z,1.15
2022-08-11T12:11:50.187Z,1.20
2022-08-11T12:14:21.421Z,1.60
2022-08-11T12:16:50.227Z,1.40
2022-08-11T12:19:22.489Z,1.55
2022-08-11T12:22:12.314Z,1.20
2022-08-11T12:25:00.565Z,1.42
2022-08-11T12:27:32.382Z,1.13
2022-08-11T12:30:10.947Z,1.38
2022-08-11T12:32:42.826Z,1.00
2022-08-11T12:35:16.592Z,1.05
2022-08-11T12:37:49.419Z,1.10
2022-08-11T12:43:57.057Z,1.42
2022-08-11T12:46:32.170Z,1.30
2022-08-11T12:49:32.592Z,1.08
2022-08-11T12:52:13.339Z,1.30
2022-08-11T12:54:58.652Z,1.20
2022-08-11T12:58:32.278Z,1.45
2022-08-11T13:01:20.360Z,1.42
2022-08-11T13:04:07.820Z,1.50
2022-08-11T13:06:49.278Z,1.10
2022-08-11T13:09:18.034Z,1.20
2022-08-11T13:12:05.832Z,1.65
2022-08-11T13:14:38.031Z,1.25
2022-08-11T13:17:43.656Z,1.15
2022-08-11T13:20:33.270Z,1.20
2022-08-11T13:23:18.654Z,1.55
2022-08-11T13:25:49.014Z,1.85
2022-08-11T13:28:29.796Z,1.42
2022-08-11T13:31:23.009Z,1.35
2022-08-11T13:34:07.390Z,1.50
2022-08-11T13:36:40.634Z,1.40
2022-08-11T13:39:09.526Z,1.58
2022-08-11T13:41:42.652Z,1.30
2022-08-11T13:44:25.847Z,1.48
2022-08-11T13:47:02.602Z,1.33
2022-08-11T13:49:33.795Z,1.25
2022-08-11T13:52:04.373Z,1.20
2022-08-11T13:54:39.149Z,1.20
2022-08-11T13:57:13.955Z,1.20
2022-08-11T14:00:25.121Z,1.63
2022-08-11T14:02:58.294Z,1.42
2022-08-11T14:05:46.807Z,1.30
2022-08-11T14:08:36.991Z,1.48
2022-08-11T14:12:22.939Z,1.50
2022-08-11T14:14:23.743Z,1.52
2022-08-11T14:16:54.356Z,1.50
2022-08-11T14:19:27.474Z,1.65
2022-08-11T14:22:09.337Z,1.52
2022-08-11T14:24:42.658Z,1.50
2022-08-11T14:28:30.904Z,1.30
2022-08-11T14:30:05.720Z,1.30
2022-08-11T14:32:34.605Z,1.48
2022-08-11T14:35:21.465Z,1.42
2022-08-11T14:37:50.225Z,3.63
2022-08-11T14:40:37.370Z,1.55
2022-08-11T14:44:14.154Z,1.20
2022-08-11T14:46:52.844Z,1.52
2022-08-11T14:49:21.496Z,1.40
2022-08-11T14:51:50.035Z,1.30
2022-08-11T14:54:37.193Z,1.60
2022-08-11T14:57:05.598Z,1.20
2022-08-11T14:59:34.625Z,1.20
2022-08-11T15:02:23.519Z,1.75
2022-08-11T15:04:52.752Z,1.75
2022-08-11T15:07:30.566Z,1.73
2022-08-11T15:10:13.041Z,1.38
2022-08-11T15:12:45.441Z,1.33
2022-08-11T15:15:32.794Z,1.63
2022-08-11T15:18:03.524Z,1.63
2022-08-11T15:23:41.180Z,1.63
2022-08-11T15:26:52.037Z,1.45
2022-08-11T15:29:43.171Z,1.70
2022-08-11T15:32:24.801Z,1.50
2022-08-11T15:35:18.003Z,1.48
2022-08-11T15:37:48.024Z,1.48
2022-08-11T15:40:48.676Z,1.60
2022-08-11T15:43:43.122Z,1.40
2022-08-11T15:46:30.909Z,1.13
2022-08-11T15:50:12.000Z,1.45
2022-08-11T15:52:44.662Z,1.33
2022-08-11T15:55:12.862Z,1.50
2022-08-11T15:58:01.336Z,1.33
2022-08-11T16:00:48.406Z,1.30
2022-08-11T16:04:06.066Z,1.38
2022-08-11T16:06:33.611Z,1.42
2022-08-11T16:09:08.926Z,1.40
2022-08-11T16:11:47.973Z,1.67
2022-08-11T16:14:37.221Z,1.35
2022-08-11T16:17:08.106Z,1.83
2022-08-11T16:22:11.332Z,1.33
2022-08-11T16:27:05.882Z,1.50
2022-08-11T16:27:49.023Z,1.42
2022-08-11T16:30:20.247Z,1.60
2022-08-11T16:32:54.160Z,1.50
2022-08-11T16:35:44.874Z,1.70
2022-08-11T16:38:33.911Z,1.38
2022-08-11T16:41:17.004Z,1.40
2022-08-11T16:44:06.350Z,1.40
2022-08-11T16:46:57.022Z,1.35
2022-08-11T16:49:37.371Z,1.58
2022-08-11T16:52:12.228Z,1.88
2022-08-11T16:54:44.553Z,1.30
2022-08-11T16:57:43.373Z,1.58
2022-08-11T17:00:22.611Z,1.20
2022-08-11T17:03:15.495Z,1.00
2022-08-11T17:06:12.033Z,1.17
2022-08-11T17:09:07.136Z,1.45
2022-08-11T17:12:00.124Z,1.55
2022-08-11T17:14:38.589Z,2.63
2022-08-11T17:17:10.864Z,1.50
2022-08-11T17:20:42.362Z,1.50
2022-08-11T17:22:51.440Z,1.75
2022-08-11T17:25:20.861Z,1.70
2022-08-11T17:27:51.839Z,1.70
2022-08-11T17:33:14.484Z,1.30
2022-08-11T17:35:45.807Z,1.60
2022-08-11T17:38:15.987Z,1.60
2022-08-11T17:41:22.945Z,1.97
2022-08-11T17:44:12.631Z,1.75
2022-08-11T17:47:05.891Z,1.63
2022-08-11T17:49:39.054Z,1.83
2022-08-11T17:52:28.797Z,1.83
2022-08-11T17:55:17.902Z,1.50
2022-08-11T17:58:24.859Z,1.38
2022-08-11T18:00:55.431Z,1.48
2022-08-11T18:03:33.485Z,1.63
2022-08-11T18:06:05.639Z,1.60
2022-08-11T18:08:55.064Z,1.60
2022-08-11T18:12:07.044Z,1.75
2022-08-11T18:14:53.832Z,1.20
2022-08-11T18:17:41.249Z,1.60
2022-08-11T18:20:28.402Z,1.63
2022-08-11T18:23:16.346Z,1.63
2022-08-11T18:26:07.708Z,1.90
2022-08-11T18:29:04.353Z,1.67
2022-08-11T18:31:54.933Z,1.30
2022-08-11T18:34:57.529Z,1.80
2022-08-11T18:37:47.023Z,1.40
2022-08-11T18:40:38.635Z,2.00
2022-08-11T18:43:29.165Z,1.98
2022-08-11T18:46:24.538Z,1.65
2022-08-11T18:49:24.149Z,1.55
2022-08-11T18:52:15.546Z,1.55
2022-08-11T18:55:06.594Z,10.32
2022-08-11T18:58:03.677Z,2.22
2022-08-11T19:00:52.250Z,2.30
2022-08-11T19:03:48.769Z,1.70
2022-08-11T19:06:41.288Z,1.98
2022-08-11T19:09:33.596Z,1.83
2022-08-11T19:12:21.815Z,2.00
2022-08-11T19:15:10.223Z,2.13
2022-08-11T19:18:02.715Z,2.22
2022-08-11T19:20:52.079Z,1.95
2022-08-11T19:23:52.255Z,2.38
2022-08-11T19:26:39.879Z,2.08
2022-08-11T19:30:07.245Z,2.15
2022-08-11T19:32:36.252Z,1.85
2022-08-11T19:35:24.226Z,2.53
2022-08-11T19:38:12.228Z,2.28
2022-08-11T19:41:00.740Z,2.00
2022-08-11T19:43:50.416Z,2.28
2022-08-11T19:46:39.848Z,2.75
2022-08-11T19:49:29.865Z,2.10
2022-08-11T19:52:17.976Z,2.33
2022-08-11T19:55:05.536Z,2.05
2022-08-11T19:57:57.015Z,2.30
2022-08-11T20:00:44.207Z,2.10
2022-08-11T20:03:32.182Z,2.20
2022-08-11T20:06:24.384Z,2.65
2022-08-11T20:09:13.856Z,1.90
2022-08-11T20:12:04.513Z,2.50
2022-08-11T20:14:53.539Z,1.80
2022-08-11T20:17:44.101Z,1.40
2022-08-11T20:20:33.729Z,2.23
2022-08-11T20:23:25.665Z,1.80
2022-08-11T20:26:30.307Z,1.85
2022-08-11T20:29:19.804Z,1.80
2022-08-11T20:32:09.581Z,1.98
2022-08-11T20:34:58.361Z,1.90
2022-08-11T20:37:50.797Z,2.40
2022-08-11T20:40:48.444Z,2.10
2022-08-11T20:44:08.303Z,1.95
2022-08-11T20:49:44.959Z,1.90
2022-08-11T20:52:40.676Z,2.15
2022-08-11T20:55:46.382Z,1.70
2022-08-11T21:01:47.307Z,1.92
2022-08-11T21:04:54.295Z,1.92
2022-08-11T21:07:55.231Z,2.70
2022-08-11T21:10:46.943Z,2.28
2022-08-11T21:16:27.494Z,2.05
2022-08-11T21:19:59.568Z,1.90
2022-08-11T21:22:39.186Z,2.80
2022-08-11T21:25:30.973Z,2.30
2022-08-11T21:28:26.391Z,2.15
2022-08-11T21:31:14.290Z,2.25
2022-08-11T21:34:01.310Z,2.20
2022-08-11T21:36:48.844Z,2.17
2022-08-11T21:39:39.271Z,2.88
2022-08-11T21:42:28.743Z,2.55
2022-08-11T21:45:16.322Z,2.10
2022-08-11T21:48:03.955Z,2.60
2022-08-11T21:50:50.377Z,2.00
2022-08-11T21:53:40.732Z,2.20
2022-08-11T21:56:29.358Z,2.10
2022-08-11T21:59:18.240Z,2.50
2022-08-11T22:02:12.504Z,2.17
2022-08-11T22:05:00.341Z,2.15
2022-08-11T22:07:50.451Z,1.88
2022-08-11T22:10:42.548Z,2.03
2022-08-11T22:13:33.425Z,2.00
2022-08-11T22:16:20.459Z,1.95
2022-08-11T22:19:11.244Z,2.10
2022-08-11T22:22:03.803Z,2.03
2022-08-11T22:24:53.428Z,2.47
2022-08-11T22:27:41.600Z,2.28
2022-08-11T22:30:30.036Z,2.05
2022-08-11T22:33:25.568Z,2.40
2022-08-11T22:36:19.164Z,1.85
2022-08-11T22:39:06.860Z,2.00
2022-08-11T22:41:53.278Z,1.88
2022-08-11T22:44:39.804Z,1.92
2022-08-11T22:47:27.533Z,2.97
2022-08-11T22:50:28.039Z,2.10
2022-08-11T22:53:15.472Z,2.50
2022-08-11T22:56:02.351Z,2.47
2022-08-11T22:58:49.850Z,2.10
2022-08-11T23:01:37.473Z,2.10
2022-08-11T23:04:25.674Z,2.70
2022-08-11T23:07:13.159Z,2.30
2022-08-11T23:10:23.144Z,2.03
2022-08-11T23:13:10.528Z,1.85
2022-08-11T23:15:57.278Z,2.30
2022-08-11T23:18:44.247Z,2.08
2022-08-11T23:21:34.528Z,2.10
2022-08-11T23:24:21.891Z,2.20
2022-08-11T23:27:09.323Z,2.00
2022-08-11T23:30:01.346Z,2.10
2022-08-11T23:32:50.503Z,2.15
2022-08-11T23:35:54.927Z,2.10
2022-08-11T23:38:48.343Z,2.60
2022-08-11T23:41:36.429Z,2.05
2022-08-11T23:44:24.815Z,2.20
2022-08-11T23:47:15.319Z,2.17
2022-08-11T23:50:02.461Z,2.58
2022-08-11T23:52:52.211Z,3.35
2022-08-11T23:55:42.747Z,2.55
2022-08-11T23:58:30.802Z,2.88
